St Pierre — FIDX — position and weather

sailwx.info

Track history (hours):
 
Tides and Currents Weather Stations Pressure Air Temp Water Temp Dewpoint Dewpoint Depression Visibility Wind Speed Wind Dir Waves Ship Positions

St Pierre

Last reported at 2014-Dec-23 03:29 UTC. Time now 2014-Dec-23 03:43 UTC.
Position N 47°18' W 002°07'.

Length 84 m; draft 6.2 m.

Type: Cargo ship. MMSI: 228024800.

Date/timePositionNaut miles runAvg speedWind from/ knotsBaromVisibWave heightAir tempDewpointWater temp
2014-Dec-23 03:29N 47°18' W 002°07'0 0.0
2014-Dec-23 02:33N 47°18' W 002°07'0 0.0
2014-Dec-23 01:33N 47°18' W 002°07'0 0.0
2014-Dec-23 00:33N 47°18' W 002°07'0 0.0
2014-Dec-22 23:33N 47°18' W 002°07'0 0.0
2014-Dec-22 22:22N 47°18' W 002°07'0 0.0
2014-Dec-22 21:21N 47°18' W 002°07'0 0.0
2014-Dec-22 20:09N 47°18' W 002°07'0 0.0
2014-Dec-22 18:24N 47°18' W 002°07'0 0.0
2014-Dec-22 17:33N 47°18' W 002°07'0 0.0
2014-Dec-22 16:33N 47°18' W 002°07'0 0.0
2014-Dec-22 15:33N 47°18' W 002°07'0 0.0
2014-Dec-22 14:18N 47°18' W 002°07'0 0.0
2014-Dec-22 13:33N 47°18' W 002°07'0 0.0
2014-Dec-22 12:19N 47°18' W 002°07'0 0.0
2014-Dec-22 11:29N 47°18' W 002°07'0 0.0
2014-Dec-22 10:30N 47°18' W 002°07'0 0.0
2014-Dec-22 09:32N 47°18' W 002°07'0 0.0
2014-Dec-22 08:30N 47°18' W 002°07'0 0.0
2014-Dec-22 07:23N 47°18' W 002°07'0 0.0
2014-Dec-22 06:32N 47°18' W 002°07'0 0.0
2014-Dec-22 05:33N 47°18' W 002°07'0 0.0
2014-Dec-22 04:33N 47°18' W 002°07'0 0.0
2014-Dec-22 03:29N 47°18' W 002°07'0 0.0
2014-Dec-22 02:32N 47°18' W 002°07'0 0.0
2014-Dec-22 01:33N 47°18' W 002°07'0 0.0
2014-Dec-22 00:31N 47°18' W 002°07'0 0.0
2014-Dec-21 23:33N 47°18' W 002°07'0 0.0
2014-Dec-21 22:18N 47°18' W 002°07'0 0.0
2014-Dec-21 19:33N 47°18' W 002°07'11 4.7
2014-Dec-21 17:11N 47°16' W 001°51'4 1.0
2014-Dec-21 13:31N 47°13' W 001°48'1211.3
2014-Dec-21 12:28N 47°18' W 002°03'17 7.9
2014-Dec-21 10:15N 47°06' W 002°21'  
2014-Dec-18 23:33N 47°18' W 002°03'3 0.4
2014-Dec-18 15:28N 47°18' W 002°07'0 0.0
2014-Dec-18 13:29N 47°18' W 002°07'0 0.0
2014-Dec-18 12:16N 47°18' W 002°07'0 0.0
2014-Dec-18 11:25N 47°18' W 002°07'11 1.8
2014-Dec-18 05:26N 47°11' W 002°18'  
2014-Dec-14 11:19N 47°18' W 002°07'2 2.1
2014-Dec-14 10:10N 47°18' W 002°04'1112.5
2014-Dec-14 09:17N 47°13' W 001°49'  
Track history (hours):
 
Tides and Currents Weather Stations Pressure Air Temp Water Temp Dewpoint Dewpoint Depression Visibility Wind Speed Wind Dir Waves Ship Positions

St Pierre

Last reported at 2014-Dec-23 03:29 UTC. Time now 2014-Dec-23 03:43 UTC.
Position N 47°18' W 002°07'.

Length 84 m; draft 6.2 m.

Type: Cargo ship. MMSI: 228024800.

Date/timePositionNaut miles runAvg speedWind from/ knotsBaromVisibWave heightAir tempDewpointWater temp
2014-Dec-23 03:29N 47°18' W 002°07'0 0.0
2014-Dec-23 02:33N 47°18' W 002°07'0 0.0
2014-Dec-23 01:33N 47°18' W 002°07'0 0.0
2014-Dec-23 00:33N 47°18' W 002°07'0 0.0
2014-Dec-22 23:33N 47°18' W 002°07'0 0.0
2014-Dec-22 22:22N 47°18' W 002°07'0 0.0
2014-Dec-22 21:21N 47°18' W 002°07'0 0.0
2014-Dec-22 20:09N 47°18' W 002°07'0 0.0
2014-Dec-22 18:24N 47°18' W 002°07'0 0.0
2014-Dec-22 17:33N 47°18' W 002°07'0 0.0
2014-Dec-22 16:33N 47°18' W 002°07'0 0.0
2014-Dec-22 15:33N 47°18' W 002°07'0 0.0
2014-Dec-22 14:18N 47°18' W 002°07'0 0.0
2014-Dec-22 13:33N 47°18' W 002°07'0 0.0
2014-Dec-22 12:19N 47°18' W 002°07'0 0.0
2014-Dec-22 11:29N 47°18' W 002°07'0 0.0
2014-Dec-22 10:30N 47°18' W 002°07'0 0.0
2014-Dec-22 09:32N 47°18' W 002°07'0 0.0
2014-Dec-22 08:30N 47°18' W 002°07'0 0.0
2014-Dec-22 07:23N 47°18' W 002°07'0 0.0
2014-Dec-22 06:32N 47°18' W 002°07'0 0.0
2014-Dec-22 05:33N 47°18' W 002°07'0 0.0
2014-Dec-22 04:33N 47°18' W 002°07'0 0.0
2014-Dec-22 03:29N 47°18' W 002°07'0 0.0
2014-Dec-22 02:32N 47°18' W 002°07'0 0.0
2014-Dec-22 01:33N 47°18' W 002°07'0 0.0
2014-Dec-22 00:31N 47°18' W 002°07'0 0.0
2014-Dec-21 23:33N 47°18' W 002°07'0 0.0
2014-Dec-21 22:18N 47°18' W 002°07'0 0.0
2014-Dec-21 19:33N 47°18' W 002°07'11 4.7
2014-Dec-21 17:11N 47°16' W 001°51'4 1.0
2014-Dec-21 13:31N 47°13' W 001°48'1211.3
2014-Dec-21 12:28N 47°18' W 002°03'17 7.9
2014-Dec-21 10:15N 47°06' W 002°21'  
2014-Dec-18 23:33N 47°18' W 002°03'3 0.4
2014-Dec-18 15:28N 47°18' W 002°07'0 0.0
2014-Dec-18 13:29N 47°18' W 002°07'0 0.0
2014-Dec-18 12:16N 47°18' W 002°07'0 0.0
2014-Dec-18 11:25N 47°18' W 002°07'11 1.8
2014-Dec-18 05:26N 47°11' W 002°18'  
2014-Dec-14 11:19N 47°18' W 002°07'2 2.1
2014-Dec-14 10:10N 47°18' W 002°04'1112.5
2014-Dec-14 09:17N 47°13' W 001°49'  

Dump ship's entire track history